createdAt,value
2022-10-01T00:00:17.172Z,95.6
2022-10-01T00:01:33.469Z,95.6
2022-10-01T00:02:49.759Z,95.8
2022-10-01T00:04:06.051Z,96.2
2022-10-01T00:05:22.335Z,96.2
2022-10-01T00:06:37.637Z,96.3
2022-10-01T00:07:53.947Z,96.4
2022-10-01T00:09:10.226Z,96.3
2022-10-01T00:10:26.539Z,96.2
2022-10-01T00:11:42.825Z,96
2022-10-01T00:12:59.108Z,95.8
2022-10-01T00:14:15.411Z,95.8
2022-10-01T00:15:31.708Z,95.8
2022-10-01T00:16:48.007Z,95.8
2022-10-01T00:18:04.290Z,95.5
2022-10-01T00:19:20.599Z,95.5
2022-10-01T00:20:36.867Z,95.5
2022-10-01T00:21:53.175Z,95.6
2022-10-01T00:23:08.476Z,95.8
2022-10-01T00:24:24.772Z,95.6
2022-10-01T00:25:41.072Z,95.8
2022-10-01T00:26:57.386Z,95.8
2022-10-01T00:28:13.669Z,95.8
2022-10-01T00:29:29.953Z,95.8
2022-10-01T00:30:46.264Z,95.6
2022-10-01T00:32:02.542Z,95.6
2022-10-01T00:33:18.852Z,95.6
2022-10-01T00:34:35.141Z,95.5
2022-10-01T00:35:51.411Z,95.2
2022-10-01T00:37:07.713Z,95.1
2022-10-01T00:38:24.021Z,95.5
2022-10-01T00:39:39.309Z,95.5
2022-10-01T00:40:55.611Z,95.6
2022-10-01T00:42:11.897Z,95.5
2022-10-01T00:43:28.218Z,95.5
2022-10-01T00:44:44.497Z,95.6
2022-10-01T00:46:00.795Z,95.6
2022-10-01T00:47:17.072Z,96
2022-10-01T00:48:33.391Z,96.1
2022-10-01T00:49:49.660Z,95.6
2022-10-01T00:51:05.984Z,95.5
2022-10-01T00:52:22.266Z,95.8
2022-10-01T00:53:38.544Z,95.8
2022-10-01T00:54:54.857Z,96.2
2022-10-01T00:56:10.145Z,96.1
2022-10-01T00:57:26.443Z,96.1
2022-10-01T00:58:42.757Z,96.3
2022-10-01T00:59:59.045Z,96.4
2022-10-01T01:01:15.347Z,96.4
2022-10-01T01:02:31.622Z,96.5
2022-10-01T01:03:46.965Z,96.4
2022-10-01T01:05:03.254Z,96.4
2022-10-01T01:06:19.541Z,96.4
2022-10-01T01:07:35.819Z,96.5
2022-10-01T01:08:52.116Z,96.5
2022-10-01T01:10:08.403Z,96.3
2022-10-01T01:11:24.707Z,96.2
2022-10-01T01:12:41.012Z,96.3
2022-10-01T01:13:57.000Z,96.5
2022-10-01T01:15:13.576Z,96.5
2022-10-01T01:16:29.903Z,96.5
2022-10-01T01:17:46.197Z,96.4
2022-10-01T01:19:02.460Z,96.3
2022-10-01T01:20:17.795Z,96.4
2022-10-01T01:21:34.095Z,96.4
2022-10-01T01:22:50.372Z,96.5
2022-10-01T01:24:06.658Z,96.5
2022-10-01T01:25:22.954Z,96.4
2022-10-01T01:26:39.246Z,96.4
2022-10-01T01:27:55.556Z,96.2
2022-10-01T01:29:11.828Z,96.3
2022-10-01T01:30:28.154Z,96.1
2022-10-01T01:31:44.439Z,96.2
2022-10-01T01:33:00.704Z,96.2
2022-10-01T01:34:17.003Z,96.2
2022-10-01T01:35:33.301Z,96.2
2022-10-01T01:36:48.625Z,96.1
2022-10-01T01:38:04.930Z,96
2022-10-01T01:39:21.215Z,95.8
2022-10-01T01:40:37.494Z,95.8
2022-10-01T01:41:53.815Z,95.8
2022-10-01T01:43:10.082Z,96
2022-10-01T01:44:26.394Z,96
2022-10-01T01:45:42.667Z,95.8
2022-10-01T01:46:58.955Z,96
2022-10-01T01:48:15.272Z,96
2022-10-01T01:49:31.545Z,96
2022-10-01T01:50:47.844Z,96.1
2022-10-01T01:52:04.161Z,96.2
2022-10-01T01:53:19.474Z,96.1
2022-10-01T01:54:35.754Z,96.2
2022-10-01T01:55:52.061Z,96.1
2022-10-01T01:57:08.319Z,96.2
2022-10-01T01:58:24.615Z,96.1
2022-10-01T01:59:40.939Z,96.2
2022-10-01T02:00:57.211Z,96
2022-10-01T02:02:13.510Z,96.1
2022-10-01T02:03:29.804Z,96
2022-10-01T02:04:46.089Z,95.8
2022-10-01T02:06:02.385Z,95.8
2022-10-01T02:07:18.672Z,95.8
2022-10-01T02:08:34.981Z,95.8
2022-10-01T02:09:50.301Z,95.8
2022-10-01T02:11:06.570Z,96
2022-10-01T02:12:22.862Z,96
2022-10-01T02:13:39.161Z,95.8
2022-10-01T02:14:55.464Z,95.8
2022-10-01T02:16:11.000Z,95.8
2022-10-01T02:17:28.068Z,95.7
2022-10-01T02:18:44.354Z,95.5
2022-10-01T02:20:00.628Z,95.5
2022-10-01T02:21:16.942Z,95.5
2022-10-01T02:22:33.239Z,95.5
2022-10-01T02:23:49.511Z,95.6
2022-10-01T02:25:05.836Z,95.8
2022-10-01T02:26:21.141Z,95.6
2022-10-01T02:27:37.419Z,95.5
2022-10-01T02:28:53.736Z,95.6
2022-10-01T02:30:10.017Z,95.5
2022-10-01T02:31:26.314Z,95.4
2022-10-01T02:32:42.605Z,95.3
2022-10-01T02:33:58.876Z,95.4
2022-10-01T02:35:15.178Z,95.4
2022-10-01T02:36:31.489Z,95.4
2022-10-01T02:37:47.760Z,95.3
2022-10-01T02:39:04.053Z,95.1
2022-10-01T02:40:20.352Z,95.1
2022-10-01T02:41:36.652Z,95
2022-10-01T02:42:51.981Z,95
2022-10-01T02:44:08.266Z,95
2022-10-01T02:45:24.543Z,94.8
2022-10-01T02:46:40.842Z,94.8
2022-10-01T02:47:57.146Z,94.8
2022-10-01T02:49:13.438Z,94.8
2022-10-01T02:50:29.721Z,94.9
2022-10-01T02:51:46.022Z,94.9
2022-10-01T02:53:02.317Z,94.8
2022-10-01T02:54:18.599Z,94.9
2022-10-01T02:55:34.895Z,94.9
2022-10-01T02:56:51.199Z,94.9
2022-10-01T02:58:07.515Z,94.7
2022-10-01T02:59:22.825Z,94.5
2022-10-01T03:00:39.086Z,94.4
2022-10-01T03:01:55.392Z,94.1
2022-10-01T03:03:11.673Z,94.2
2022-10-01T03:04:27.984Z,94.3
2022-10-01T03:05:44.268Z,94.4
2022-10-01T03:07:00.569Z,94.5
2022-10-01T03:08:16.888Z,94.2
2022-10-01T03:09:33.157Z,94.2
2022-10-01T03:10:49.460Z,94.1
2022-10-01T03:12:05.736Z,94.2
2022-10-01T03:13:22.038Z,94.1
2022-10-01T03:14:38.325Z,93.8
2022-10-01T03:15:53.640Z,93.8
2022-10-01T03:17:09.935Z,93.7
2022-10-01T03:18:26.218Z,93.8
2022-10-01T03:19:42.000Z,93.8
2022-10-01T03:20:58.812Z,94
2022-10-01T03:22:15.129Z,93.7
2022-10-01T03:23:31.399Z,93.5
2022-10-01T03:24:47.691Z,93.8
2022-10-01T03:26:03.987Z,93.6
2022-10-01T03:27:20.280Z,93.7
2022-10-01T03:28:36.585Z,94
2022-10-01T03:29:52.880Z,94.1
2022-10-01T03:31:09.157Z,94.1
2022-10-01T03:32:24.491Z,94.2
2022-10-01T03:33:40.785Z,94.1
2022-10-01T03:34:57.081Z,94.2
2022-10-01T03:36:13.373Z,93.9
2022-10-01T03:37:29.645Z,93.8
2022-10-01T03:38:45.975Z,93.8
2022-10-01T03:40:02.258Z,93.9
2022-10-01T03:41:18.550Z,93.6
2022-10-01T03:42:34.828Z,93.5
2022-10-01T03:43:51.116Z,93.4
2022-10-01T03:45:07.411Z,93.4
2022-10-01T03:46:23.704Z,93.3
2022-10-01T03:47:40.022Z,93.3
2022-10-01T03:48:55.339Z,93.1
2022-10-01T03:50:11.632Z,93.1
2022-10-01T03:51:27.916Z,92.8
2022-10-01T03:52:44.192Z,92.7
2022-10-01T03:54:00.487Z,92.7
2022-10-01T03:55:16.783Z,92.7
2022-10-01T03:56:33.091Z,92.6
2022-10-01T03:57:49.393Z,92.3
2022-10-01T03:59:05.685Z,92.2
2022-10-01T04:00:21.949Z,92.2
2022-10-01T04:01:38.246Z,92.2
2022-10-01T04:02:54.549Z,92.1
2022-10-01T04:04:10.845Z,91.9
2022-10-01T04:05:26.167Z,92.2
2022-10-01T04:06:42.440Z,91.9
2022-10-01T04:07:58.733Z,91.9
2022-10-01T04:09:15.026Z,91.9
2022-10-01T04:10:31.344Z,92.1
2022-10-01T04:11:47.636Z,92.1
2022-10-01T04:13:03.930Z,91.7
2022-10-01T04:14:20.212Z,92
2022-10-01T04:15:36.514Z,92
2022-10-01T04:16:52.792Z,92.1
2022-10-01T04:18:09.089Z,91.9
2022-10-01T04:19:25.389Z,91.8
2022-10-01T04:20:41.672Z,91.8
2022-10-01T04:21:56.989Z,91.9
2022-10-01T04:23:13.306Z,91.9
2022-10-01T04:24:29.601Z,91.9
2022-10-01T04:25:45.878Z,91.7
2022-10-01T04:27:02.163Z,91.8
2022-10-01T04:28:18.453Z,91.8
2022-10-01T04:29:34.772Z,91.7
2022-10-01T04:30:51.066Z,91.4
2022-10-01T04:32:07.341Z,91.3
2022-10-01T04:33:23.643Z,91.5
2022-10-01T04:34:39.951Z,91.4
2022-10-01T04:35:56.215Z,91.5
2022-10-01T04:37:12.555Z,91.3
2022-10-01T04:38:27.851Z,91.3
2022-10-01T04:39:44.125Z,91.5
2022-10-01T04:41:00.417Z,91.4
2022-10-01T04:42:16.650Z,91.6
2022-10-01T04:43:32.958Z,91.4
2022-10-01T04:44:49.200Z,91.3
2022-10-01T04:46:05.432Z,91.2
2022-10-01T04:47:21.737Z,90.8
2022-10-01T04:48:38.033Z,90.9
2022-10-01T04:49:54.278Z,90.5
2022-10-01T04:51:10.519Z,90.5
2022-10-01T04:52:26.758Z,90.2
2022-10-01T04:53:43.000Z,90.2
2022-10-01T04:54:58.376Z,89.9
2022-10-01T04:56:14.610Z,89.9
2022-10-01T04:57:30.863Z,89.8
2022-10-01T04:58:47.096Z,89.9
2022-10-01T05:00:03.339Z,89.5
2022-10-01T05:01:19.588Z,89.5
2022-10-01T05:02:35.809Z,89.7
2022-10-01T05:03:52.064Z,89.7
2022-10-01T05:05:08.292Z,89.7
2022-10-01T05:06:24.530Z,89.9
2022-10-01T05:07:40.780Z,89.9
2022-10-01T05:08:57.019Z,90.1
2022-10-01T05:10:13.260Z,89.7
2022-10-01T05:11:28.513Z,89.8
2022-10-01T05:12:44.751Z,89.8
2022-10-01T05:14:00.995Z,89.9
2022-10-01T05:15:17.235Z,89.7
2022-10-01T05:16:33.476Z,89.8
2022-10-01T05:17:49.711Z,90
2022-10-01T05:19:04.978Z,90.1
2022-10-01T05:20:21.218Z,90.3
2022-10-01T05:21:37.447Z,90.2
2022-10-01T05:22:53.694Z,90.5
2022-10-01T05:24:09.939Z,90.5
2022-10-01T05:25:26.171Z,90.7
2022-10-01T05:26:42.425Z,90.8
2022-10-01T05:27:58.649Z,90.5
2022-10-01T05:29:14.896Z,90.6
2022-10-01T05:30:31.125Z,90.6
2022-10-01T05:31:47.376Z,90.7
2022-10-01T05:33:03.618Z,90.8
2022-10-01T05:34:19.858Z,90.9
2022-10-01T05:35:35.106Z,91.1
2022-10-01T05:36:51.356Z,90.9
2022-10-01T05:38:07.603Z,90.9
2022-10-01T05:39:23.830Z,91
2022-10-01T05:40:40.079Z,91.2
2022-10-01T05:41:56.316Z,91.4
2022-10-01T05:43:12.554Z,91.1
2022-10-01T05:44:28.787Z,90.9
2022-10-01T05:45:45.029Z,90.6
2022-10-01T05:47:01.280Z,90.6
2022-10-01T05:48:17.520Z,90.3
2022-10-01T05:49:33.761Z,90.4
2022-10-01T05:50:49.991Z,92.1
2022-10-01T05:52:05.244Z,89.8
2022-10-01T05:53:21.486Z,89.3
2022-10-01T05:54:37.728Z,89.7
2022-10-01T05:55:53.968Z,89.9
2022-10-01T05:57:10.200Z,89.8
2022-10-01T05:58:26.441Z,89.5
2022-10-01T05:59:42.684Z,89.5
2022-10-01T06:00:58.928Z,89.5
2022-10-01T06:02:15.168Z,89
2022-10-01T06:03:31.404Z,88.8
2022-10-01T06:04:47.642Z,88.6
2022-10-01T06:06:03.898Z,88.5
2022-10-01T06:07:20.000Z,88.6
2022-10-01T06:08:35.386Z,88.8
2022-10-01T06:09:51.630Z,88.4
2022-10-01T06:11:07.854Z,88.3
2022-10-01T06:12:24.106Z,88.5
2022-10-01T06:13:40.336Z,88.6
2022-10-01T06:14:56.593Z,88.5
2022-10-01T06:16:12.830Z,88.3
2022-10-01T06:17:29.069Z,88.1
2022-10-01T06:18:45.296Z,88.1
2022-10-01T06:20:01.552Z,88.2
2022-10-01T06:21:17.779Z,88.8
2022-10-01T06:22:34.020Z,88.2
2022-10-01T06:23:50.264Z,88.1
2022-10-01T06:25:05.510Z,88
2022-10-01T06:26:21.769Z,88
2022-10-01T06:27:38.001Z,88.2
2022-10-01T06:28:54.233Z,88.3
2022-10-01T06:30:10.477Z,88.2
2022-10-01T06:31:26.724Z,88.2
2022-10-01T06:32:42.948Z,88.3
2022-10-01T06:33:59.193Z,88.3
2022-10-01T06:35:15.435Z,88.6
2022-10-01T06:36:31.671Z,88.2
2022-10-01T06:37:47.924Z,88.1
2022-10-01T06:39:04.153Z,88.2
2022-10-01T06:40:20.403Z,88.2
2022-10-01T06:41:35.653Z,88.1
2022-10-01T06:42:51.889Z,87.9
2022-10-01T06:44:08.136Z,88
2022-10-01T06:45:24.366Z,88
2022-10-01T06:46:40.608Z,87.8
2022-10-01T06:47:56.845Z,87.9
2022-10-01T06:49:13.090Z,87.9
2022-10-01T06:50:29.326Z,87.7
2022-10-01T06:51:45.565Z,87.7
2022-10-01T06:53:01.821Z,87.9
2022-10-01T06:54:18.053Z,87.7
2022-10-01T06:55:34.297Z,87.5
2022-10-01T06:56:50.544Z,87.7
2022-10-01T06:58:05.798Z,87.3
2022-10-01T06:59:22.022Z,87.3
2022-10-01T07:00:38.270Z,87.5
2022-10-01T07:01:54.513Z,87.3
2022-10-01T07:03:10.756Z,87.4
2022-10-01T07:04:26.982Z,87
2022-10-01T07:05:43.227Z,87
2022-10-01T07:06:59.472Z,86.7
2022-10-01T07:08:15.712Z,86.5
2022-10-01T07:09:31.960Z,86.6
2022-10-01T07:10:48.183Z,86.3
2022-10-01T07:12:04.436Z,86.1
2022-10-01T07:13:20.665Z,85.7
2022-10-01T07:14:35.928Z,85.6
2022-10-01T07:15:52.175Z,85.6
2022-10-01T07:17:08.416Z,85.7
2022-10-01T07:18:24.642Z,86
2022-10-01T07:19:40.874Z,85.5
2022-10-01T07:20:57.114Z,85.7
2022-10-01T07:22:13.374Z,85.5
2022-10-01T07:23:29.608Z,85.6
2022-10-01T07:24:45.853Z,85.4
2022-10-01T07:26:02.080Z,85.3
2022-10-01T07:27:18.330Z,84.6
2022-10-01T07:28:34.561Z,84.6
2022-10-01T07:29:50.812Z,84.6
2022-10-01T07:31:06.068Z,84.6
2022-10-01T07:32:22.303Z,84.8
2022-10-01T07:33:38.533Z,84.4
2022-10-01T07:34:54.779Z,84.4
2022-10-01T07:36:11.022Z,83.8
2022-10-01T07:37:27.261Z,83.9
2022-10-01T07:38:43.497Z,83.8
2022-10-01T07:39:59.731Z,84
2022-10-01T07:41:15.986Z,83.8
2022-10-01T07:42:32.218Z,84.4
2022-10-01T07:43:48.454Z,84
2022-10-01T07:45:04.707Z,84
2022-10-01T07:46:20.939Z,84
2022-10-01T07:47:36.199Z,83.5
2022-10-01T07:48:52.439Z,83.4
2022-10-01T07:50:08.687Z,83.4
2022-10-01T07:51:24.909Z,84
2022-10-01T07:52:41.163Z,83.3
2022-10-01T07:53:57.396Z,83.8
2022-10-01T07:55:13.644Z,83.8
2022-10-01T07:56:29.869Z,84
2022-10-01T07:57:46.108Z,83.8
2022-10-01T07:59:02.357Z,84.2
2022-10-01T08:00:18.584Z,85.5
2022-10-01T08:01:34.822Z,85.3
2022-10-01T08:02:51.084Z,85.9
2022-10-01T08:04:06.330Z,86.8
2022-10-01T08:05:22.576Z,86.5
2022-10-01T08:06:38.803Z,88
2022-10-01T08:07:55.046Z,88
2022-10-01T08:09:11.293Z,88.7
2022-10-01T08:10:27.518Z,89.8
2022-10-01T08:11:43.768Z,89.5
2022-10-01T08:13:00.012Z,90.2
2022-10-01T08:14:16.237Z,90.1
2022-10-01T08:15:32.486Z,90.1
2022-10-01T08:16:48.730Z,90.6
2022-10-01T08:18:04.958Z,90.9
2022-10-01T08:19:21.197Z,90.6
2022-10-01T08:20:36.468Z,90.5
2022-10-01T08:21:52.694Z,90.6
2022-10-01T08:23:08.946Z,91.1
2022-10-01T08:24:25.176Z,91.5
2022-10-01T08:25:41.417Z,90.3
2022-10-01T08:26:57.649Z,90.6
2022-10-01T08:28:13.899Z,90.1
2022-10-01T08:29:30.142Z,90.8
2022-10-01T08:30:46.375Z,90.3
2022-10-01T08:32:02.610Z,89.3
2022-10-01T08:33:18.867Z,90.1
2022-10-01T08:34:35.096Z,89.9
2022-10-01T08:35:51.338Z,90
2022-10-01T08:37:06.594Z,90.4
2022-10-01T08:38:22.832Z,89.1
2022-10-01T08:39:39.070Z,89.6
2022-10-01T08:40:55.308Z,89.8
2022-10-01T08:42:11.557Z,89.3
2022-10-01T08:43:27.786Z,89.2
2022-10-01T08:44:44.034Z,89.9
2022-10-01T08:46:00.283Z,89.9
2022-10-01T08:47:16.509Z,89.6
2022-10-01T08:48:32.762Z,89.9
2022-10-01T08:49:48.994Z,90.2
2022-10-01T08:51:05.240Z,89.5
2022-10-01T08:52:21.470Z,90
2022-10-01T08:53:36.721Z,90.1
2022-10-01T08:54:52.974Z,89.6
2022-10-01T08:56:09.200Z,90.4
2022-10-01T08:57:25.443Z,89.5
2022-10-01T08:58:41.692Z,89.6
2022-10-01T08:59:57.920Z,90.5
2022-10-01T09:01:14.168Z,89.2
2022-10-01T09:02:30.401Z,88.3
2022-10-01T09:03:46.645Z,89
2022-10-01T09:05:02.889Z,89.5
2022-10-01T09:06:19.116Z,88.8
2022-10-01T09:07:35.361Z,88.5
2022-10-01T09:08:51.604Z,87.9
2022-10-01T09:10:06.867Z,88.1
2022-10-01T09:11:23.094Z,88.8
2022-10-01T09:12:39.337Z,87.8
2022-10-01T09:13:55.582Z,87.6
2022-10-01T09:15:11.812Z,87.9
2022-10-01T09:16:28.055Z,87.6
2022-10-01T09:17:44.288Z,87.9
2022-10-01T09:19:00.544Z,87.7
2022-10-01T09:20:16.784Z,86.5
2022-10-01T09:21:33.023Z,86.6
2022-10-01T09:22:49.248Z,87
2022-10-01T09:24:05.494Z,87.3
2022-10-01T09:25:21.735Z,87.3
2022-10-01T09:26:36.991Z,87.3
2022-10-01T09:27:53.222Z,87
2022-10-01T09:29:09.470Z,87.1
2022-10-01T09:30:25.717Z,88
2022-10-01T09:31:41.952Z,87.7
2022-10-01T09:32:58.182Z,88.1
2022-10-01T09:34:13.459Z,88.3
2022-10-01T09:35:29.685Z,88.7
2022-10-01T09:36:45.923Z,89.3
2022-10-01T09:38:02.171Z,89.2
2022-10-01T09:39:18.417Z,88.8
2022-10-01T09:40:34.647Z,89.5
2022-10-01T09:41:50.881Z,89.2
2022-10-01T09:43:07.135Z,87.9
2022-10-01T09:44:23.364Z,88.5
2022-10-01T09:45:39.607Z,89
2022-10-01T09:46:55.848Z,89.3
2022-10-01T09:48:12.082Z,90.1
2022-10-01T09:49:28.329Z,90.6
2022-10-01T09:50:44.558Z,91
2022-10-01T09:51:59.826Z,91.3
2022-10-01T09:53:16.064Z,90.5
2022-10-01T09:54:32.301Z,91.3
2022-10-01T09:55:48.531Z,90.3
2022-10-01T09:57:04.771Z,90.5
2022-10-01T09:58:21.024Z,90.8
2022-10-01T09:59:37.254Z,91.3
2022-10-01T10:00:53.491Z,92.4
2022-10-01T10:02:09.723Z,92
2022-10-01T10:03:25.980Z,91.7
2022-10-01T10:04:42.204Z,92.6
2022-10-01T10:05:58.454Z,93
2022-10-01T10:07:14.693Z,93.9
2022-10-01T10:08:29.955Z,93.5
2022-10-01T10:09:46.191Z,94
2022-10-01T10:11:02.423Z,93.8
2022-10-01T10:12:18.663Z,94.5
2022-10-01T10:13:34.917Z,94.3
2022-10-01T10:14:51.155Z,94
2022-10-01T10:16:07.383Z,94
2022-10-01T10:17:23.625Z,94.1
2022-10-01T10:18:39.856Z,95.1
2022-10-01T10:19:56.104Z,95.3
2022-10-01T10:21:12.340Z,94.5
2022-10-01T10:22:28.583Z,94.8
2022-10-01T10:23:44.830Z,95.8
2022-10-01T10:25:00.066Z,96
2022-10-01T10:26:16.316Z,96.5
2022-10-01T10:27:32.556Z,96
2022-10-01T10:28:48.796Z,95.6
2022-10-01T10:30:05.044Z,96
2022-10-01T10:31:21.264Z,95.6
2022-10-01T10:32:37.521Z,95.8
2022-10-01T10:33:53.758Z,95.8
2022-10-01T10:35:10.002Z,96.7
2022-10-01T10:36:26.243Z,96.5
2022-10-01T10:37:42.479Z,96.1
2022-10-01T10:38:58.700Z,96.5
2022-10-01T10:40:14.947Z,96.7
2022-10-01T10:41:30.203Z,96.1
2022-10-01T10:42:46.450Z,96.3
2022-10-01T10:44:02.690Z,96.6
2022-10-01T10:45:18.932Z,96.5
2022-10-01T10:46:35.169Z,96.2
2022-10-01T10:47:51.400Z,97.1
2022-10-01T10:49:07.643Z,97.7
2022-10-01T10:50:23.880Z,97.2
2022-10-01T10:51:40.120Z,97.2
2022-10-01T10:52:56.365Z,97.1
2022-10-01T10:54:12.598Z,97.6
2022-10-01T10:55:28.841Z,97.8
2022-10-01T10:56:45.080Z,97.4
2022-10-01T10:58:00.332Z,97.6
2022-10-01T10:59:16.585Z,97.8
2022-10-01T11:00:32.812Z,97.7
2022-10-01T11:01:49.056Z,97.8
2022-10-01T11:03:05.303Z,97.8
2022-10-01T11:04:21.533Z,97.8
2022-10-01T11:05:37.774Z,97.8
2022-10-01T11:06:54.011Z,98
2022-10-01T11:08:10.249Z,98.3
2022-10-01T11:09:26.497Z,98.5
2022-10-01T11:10:42.733Z,98.7
2022-10-01T11:11:58.979Z,98.5
2022-10-01T11:13:15.226Z,98.7
2022-10-01T11:14:30.000Z,98.7
2022-10-01T11:15:46.719Z,98.4
2022-10-01T11:17:02.942Z,98
2022-10-01T11:18:19.198Z,97.9
2022-10-01T11:19:35.429Z,97.9
2022-10-01T11:20:51.662Z,98.1
2022-10-01T11:22:07.914Z,98.3
2022-10-01T11:23:24.146Z,98.5
2022-10-01T11:24:40.388Z,98.6
2022-10-01T11:25:56.625Z,98.7
2022-10-01T11:27:12.863Z,98.2
2022-10-01T11:28:29.102Z,98
2022-10-01T11:29:45.349Z,97.1
2022-10-01T11:31:00.596Z,97.8
2022-10-01T11:32:16.845Z,97.4
2022-10-01T11:33:33.079Z,97.6
2022-10-01T11:34:49.310Z,97.5
2022-10-01T11:36:05.561Z,97
2022-10-01T11:37:21.794Z,97.4
2022-10-01T11:38:38.045Z,96.9
2022-10-01T11:39:54.287Z,97
2022-10-01T11:41:10.519Z,97.4
2022-10-01T11:42:26.753Z,97.3
2022-10-01T11:43:43.001Z,95.7
2022-10-01T11:44:59.244Z,96.3
2022-10-01T11:46:15.479Z,96.5
2022-10-01T11:47:30.732Z,96.4
2022-10-01T11:48:46.961Z,96.4
2022-10-01T11:50:03.201Z,96.5
2022-10-01T11:51:19.443Z,96.3
2022-10-01T11:52:35.696Z,95.9
2022-10-01T11:53:51.922Z,96
2022-10-01T11:55:08.161Z,96.6
2022-10-01T11:56:24.405Z,95.9
2022-10-01T11:57:40.651Z,96.5
2022-10-01T11:58:56.880Z,96.5
2022-10-01T12:00:13.119Z,96.5
2022-10-01T12:01:29.363Z,95.7
2022-10-01T12:02:45.594Z,94.8
2022-10-01T12:04:00.855Z,95.2
2022-10-01T12:05:17.092Z,94.6
2022-10-01T12:06:33.342Z,94.5
2022-10-01T12:07:49.588Z,95
2022-10-01T12:09:05.811Z,94.3
2022-10-01T12:10:22.054Z,94.9
2022-10-01T12:11:38.301Z,95.1
2022-10-01T12:12:54.531Z,94.2
2022-10-01T12:14:10.764Z,93.7
2022-10-01T12:15:27.010Z,94.4
2022-10-01T12:16:43.250Z,94.4
2022-10-01T12:17:59.497Z,94.8
2022-10-01T12:19:15.732Z,94.5
2022-10-01T12:20:30.995Z,94.3
2022-10-01T12:21:47.228Z,94.6
2022-10-01T12:23:03.455Z,94.5
2022-10-01T12:24:19.699Z,94.8
2022-10-01T12:25:35.949Z,94.5
2022-10-01T12:26:52.183Z,94.6
2022-10-01T12:28:08.409Z,95.5
2022-10-01T12:29:24.666Z,95.2
2022-10-01T12:30:40.893Z,94.8
2022-10-01T12:31:57.140Z,94.7
2022-10-01T12:33:13.363Z,94.6
2022-10-01T12:34:29.621Z,95.1
2022-10-01T12:35:45.841Z,94.1
2022-10-01T12:37:01.101Z,93.7
2022-10-01T12:38:17.341Z,94.5
2022-10-01T12:39:33.581Z,94.6
2022-10-01T12:40:49.832Z,93.7
2022-10-01T12:42:06.059Z,93.5
2022-10-01T12:43:22.291Z,94.5
2022-10-01T12:44:38.535Z,93.9
2022-10-01T12:45:54.780Z,93.6
2022-10-01T12:47:11.014Z,94.3
2022-10-01T12:48:27.250Z,94.1
2022-10-01T12:49:43.498Z,93.7
2022-10-01T12:50:59.735Z,93.4
2022-10-01T12:52:15.983Z,93.9
2022-10-01T12:53:31.235Z,94.4
2022-10-01T12:54:47.462Z,93.6
2022-10-01T12:56:03.714Z,93.4
2022-10-01T12:57:19.938Z,93
2022-10-01T12:58:36.173Z,93.5
2022-10-01T12:59:52.422Z,93.5
2022-10-01T13:01:08.660Z,93.1
2022-10-01T13:02:24.908Z,93
2022-10-01T13:03:41.136Z,92.3
2022-10-01T13:04:57.387Z,92.5
2022-10-01T13:06:13.616Z,92.6
2022-10-01T13:07:29.846Z,92.1
2022-10-01T13:08:46.089Z,92.4
2022-10-01T13:10:01.345Z,91.7
2022-10-01T13:11:17.579Z,91.7
2022-10-01T13:12:33.821Z,90.6
2022-10-01T13:13:50.059Z,91.1
2022-10-01T13:15:06.295Z,90.9
2022-10-01T13:16:22.554Z,91.7
2022-10-01T13:17:38.792Z,90.6
2022-10-01T13:18:55.016Z,90.9
2022-10-01T13:20:11.259Z,90.9
2022-10-01T13:21:27.504Z,90.3
2022-10-01T13:22:43.743Z,89.4
2022-10-01T13:23:59.971Z,89.3
2022-10-01T13:25:16.221Z,89.3
2022-10-01T13:26:31.475Z,90.2
2022-10-01T13:27:47.710Z,89.3
2022-10-01T13:29:03.946Z,89.6
2022-10-01T13:30:20.194Z,90
2022-10-01T13:31:36.416Z,89.5
2022-10-01T13:32:52.655Z,90.3
2022-10-01T13:34:08.911Z,89.8
2022-10-01T13:35:25.132Z,90
2022-10-01T13:36:41.387Z,90.2
2022-10-01T13:37:57.625Z,89.9
2022-10-01T13:39:13.856Z,89.7
2022-10-01T13:40:30.090Z,90.2
2022-10-01T13:41:46.335Z,89.8
2022-10-01T13:43:01.590Z,89.4
2022-10-01T13:44:17.825Z,90.2
2022-10-01T13:45:34.069Z,90.5
2022-10-01T13:46:50.301Z,89.7
2022-10-01T13:48:06.538Z,90.1
2022-10-01T13:49:21.814Z,89.5
2022-10-01T13:50:38.038Z,89.8
2022-10-01T13:51:54.276Z,89.8
2022-10-01T13:53:10.524Z,90
2022-10-01T13:54:26.764Z,89.8
2022-10-01T13:55:42.995Z,89.2
2022-10-01T13:56:59.235Z,89.1
2022-10-01T13:58:15.471Z,89.1
2022-10-01T13:59:31.710Z,88.4
2022-10-01T14:00:47.956Z,88.8
2022-10-01T14:02:04.200Z,88.7
2022-10-01T14:03:20.436Z,89.1
2022-10-01T14:04:36.676Z,88
2022-10-01T14:05:51.936Z,87.8
2022-10-01T14:07:08.161Z,86.9
2022-10-01T14:08:24.408Z,86.5
2022-10-01T14:09:40.654Z,87.4
2022-10-01T14:10:56.879Z,87.2
2022-10-01T14:12:13.127Z,87.4
2022-10-01T14:13:29.374Z,87
2022-10-01T14:14:45.592Z,86.6
2022-10-01T14:16:01.836Z,86.8
2022-10-01T14:17:18.076Z,87
2022-10-01T14:18:34.327Z,87.1
2022-10-01T14:19:50.547Z,87.6
2022-10-01T14:21:06.788Z,87
2022-10-01T14:22:22.042Z,86.9
2022-10-01T14:23:38.288Z,87.1
2022-10-01T14:24:54.520Z,87.7
2022-10-01T14:26:10.774Z,87.3
2022-10-01T14:27:27.006Z,86.6
2022-10-01T14:28:43.244Z,87
2022-10-01T14:29:59.486Z,86.5
2022-10-01T14:31:15.714Z,87.8
2022-10-01T14:32:31.962Z,87
2022-10-01T14:33:48.193Z,87.3
2022-10-01T14:35:04.433Z,86.6
2022-10-01T14:36:20.668Z,86.7
2022-10-01T14:37:36.916Z,86.6
2022-10-01T14:38:52.176Z,86.7
2022-10-01T14:40:08.418Z,86.9
2022-10-01T14:41:24.642Z,86.2
2022-10-01T14:42:40.898Z,86.2
2022-10-01T14:43:57.135Z,86.2
2022-10-01T14:45:13.368Z,85.3
2022-10-01T14:46:29.604Z,85.2
2022-10-01T14:47:45.852Z,84.4
2022-10-01T14:49:02.095Z,83.7
2022-10-01T14:50:18.334Z,83.9
2022-10-01T14:51:34.559Z,83.2
2022-10-01T14:52:50.810Z,83
2022-10-01T14:54:07.048Z,82.3
2022-10-01T14:55:22.309Z,80.5
2022-10-01T14:56:38.536Z,81
2022-10-01T14:57:54.770Z,81.9
2022-10-01T14:59:11.017Z,82.7
2022-10-01T15:00:27.248Z,83.1
2022-10-01T15:01:43.498Z,84
2022-10-01T15:02:59.728Z,83.3
2022-10-01T15:04:15.967Z,83.7
2022-10-01T15:05:32.206Z,83.9
2022-10-01T15:06:48.450Z,84
2022-10-01T15:08:04.686Z,84.1
2022-10-01T15:09:20.921Z,84.1
2022-10-01T15:10:37.162Z,84.2
2022-10-01T15:11:52.419Z,84.2
2022-10-01T15:13:08.658Z,85
2022-10-01T15:14:24.000Z,85.7
2022-10-01T15:15:41.138Z,85.7
2022-10-01T15:16:57.377Z,86
2022-10-01T15:18:13.607Z,86.1
2022-10-01T15:19:29.838Z,85.7
2022-10-01T15:20:46.077Z,86.3
2022-10-01T15:22:02.333Z,86.3
2022-10-01T15:23:18.557Z,85.8
2022-10-01T15:24:34.805Z,86
2022-10-01T15:25:51.044Z,85.9
2022-10-01T15:27:07.273Z,86.3
2022-10-01T15:28:22.538Z,86.5
2022-10-01T15:29:38.773Z,86.1
2022-10-01T15:30:55.000Z,86.2
2022-10-01T15:32:11.250Z,86.3
2022-10-01T15:33:27.476Z,86.6
2022-10-01T15:34:43.734Z,86.7
2022-10-01T15:35:59.966Z,86.7
2022-10-01T15:37:16.201Z,87
2022-10-01T15:38:32.440Z,86.8
2022-10-01T15:39:48.677Z,86.8
2022-10-01T15:41:04.914Z,86.8
2022-10-01T15:42:21.155Z,87.1
2022-10-01T15:43:37.399Z,86.8
2022-10-01T15:44:52.656Z,87
2022-10-01T15:46:08.877Z,87
2022-10-01T15:47:25.114Z,86.9
2022-10-01T15:48:41.354Z,87
2022-10-01T15:49:57.599Z,86.8
2022-10-01T15:51:13.845Z,86.9
2022-10-01T15:52:30.077Z,87
2022-10-01T15:53:46.319Z,87.1
2022-10-01T15:55:02.555Z,87
2022-10-01T15:56:18.000Z,87
2022-10-01T15:57:35.038Z,87.2
2022-10-01T15:58:51.264Z,87.7
2022-10-01T16:00:07.511Z,87.8
2022-10-01T16:01:22.757Z,87.7
2022-10-01T16:02:39.015Z,87.8
2022-10-01T16:03:55.249Z,88
2022-10-01T16:05:11.471Z,88
2022-10-01T16:06:27.710Z,87.8
2022-10-01T16:07:43.962Z,88
2022-10-01T16:09:00.194Z,87.8
2022-10-01T16:10:16.437Z,87.8
2022-10-01T16:11:32.664Z,88
2022-10-01T16:12:48.899Z,88
2022-10-01T16:14:05.139Z,88
2022-10-01T16:15:21.383Z,88
2022-10-01T16:16:37.617Z,88.3
2022-10-01T16:17:52.877Z,88.2
2022-10-01T16:19:09.113Z,88.3
2022-10-01T16:20:25.357Z,88.2
2022-10-01T16:21:41.593Z,88.2
2022-10-01T16:22:57.847Z,88.3
2022-10-01T16:24:14.063Z,88
2022-10-01T16:25:30.323Z,88.2
2022-10-01T16:26:46.546Z,88
2022-10-01T16:28:02.792Z,88.3
2022-10-01T16:29:19.000Z,88
2022-10-01T16:30:35.268Z,88.2
2022-10-01T16:31:51.505Z,88.4
2022-10-01T16:33:07.751Z,88.7
2022-10-01T16:34:22.985Z,88.7
2022-10-01T16:35:39.241Z,88.6
2022-10-01T16:36:55.471Z,88.4
2022-10-01T16:38:11.728Z,88.5
2022-10-01T16:39:27.946Z,88.6
2022-10-01T16:40:44.192Z,88.7
2022-10-01T16:42:00.419Z,88.7
2022-10-01T16:43:16.660Z,88.6
2022-10-01T16:44:32.899Z,88.7
2022-10-01T16:45:49.150Z,88.7
2022-10-01T16:47:05.391Z,88.7
2022-10-01T16:48:21.619Z,88.7
2022-10-01T16:49:37.872Z,88.5
2022-10-01T16:50:53.125Z,88.7
2022-10-01T16:52:09.355Z,88.5
2022-10-01T16:53:25.595Z,88.6
2022-10-01T16:54:41.824Z,88.8
2022-10-01T16:55:58.063Z,88.6
2022-10-01T16:57:14.314Z,88.8
2022-10-01T16:58:30.556Z,88.7
2022-10-01T16:59:46.790Z,89
2022-10-01T17:01:03.034Z,89